sensor_id;sensor_type;location;lat;lon;timestamp;P1;durP1;ratioP1;P2;durP2;ratioP2
84917;SDS011;75182;51.736;5.318;2024-01-11T00:07:09;19.30;;;10.10;;
84917;SDS011;75182;51.736;5.318;2024-01-11T00:17:10;22.73;;;11.70;;
84917;SDS011;75182;51.736;5.318;2024-01-11T00:27:10;23.65;;;11.85;;
84917;SDS011;75182;51.736;5.318;2024-01-11T00:37:10;24.60;;;12.43;;
84917;SDS011;75182;51.736;5.318;2024-01-11T00:47:11;22.85;;;10.25;;
84917;SDS011;75182;51.736;5.318;2024-01-11T00:57:11;23.55;;;11.20;;
84917;SDS011;75182;51.736;5.318;2024-01-11T01:07:11;15.40;;;8.80;;
84917;SDS011;75182;51.736;5.318;2024-01-11T01:17:12;24.70;;;11.88;;
84917;SDS011;75182;51.736;5.318;2024-01-11T01:27:12;20.75;;;10.88;;
84917;SDS011;75182;51.736;5.318;2024-01-11T01:37:12;21.52;;;10.85;;
84917;SDS011;75182;51.736;5.318;2024-01-11T01:47:13;22.40;;;10.93;;
84917;SDS011;75182;51.736;5.318;2024-01-11T01:57:13;20.65;;;11.27;;
84917;SDS011;75182;51.736;5.318;2024-01-11T02:07:15;23.70;;;10.98;;
84917;SDS011;75182;51.736;5.318;2024-01-11T02:17:16;22.52;;;11.73;;
84917;SDS011;75182;51.736;5.318;2024-01-11T02:27:16;21.15;;;9.63;;
84917;SDS011;75182;51.736;5.318;2024-01-11T02:37:16;22.05;;;10.70;;
84917;SDS011;75182;51.736;5.318;2024-01-11T02:47:18;18.38;;;9.13;;
84917;SDS011;75182;51.736;5.318;2024-01-11T02:57:18;21.58;;;9.90;;
84917;SDS011;75182;51.736;5.318;2024-01-11T03:07:19;19.20;;;10.23;;
84917;SDS011;75182;51.736;5.318;2024-01-11T03:17:19;18.75;;;9.77;;
84917;SDS011;75182;51.736;5.318;2024-01-11T03:27:19;20.27;;;9.90;;
84917;SDS011;75182;51.736;5.318;2024-01-11T03:37:20;18.17;;;8.57;;
84917;SDS011;75182;51.736;5.318;2024-01-11T03:47:20;21.20;;;10.80;;
84917;SDS011;75182;51.736;5.318;2024-01-11T03:57:20;17.23;;;9.70;;
84917;SDS011;75182;51.736;5.318;2024-01-11T04:07:21;15.32;;;7.53;;
84917;SDS011;75182;51.736;5.318;2024-01-11T04:17:21;19.55;;;10.25;;
84917;SDS011;75182;51.736;5.318;2024-01-11T04:27:21;16.38;;;9.85;;
84917;SDS011;75182;51.736;5.318;2024-01-11T04:37:22;17.95;;;9.77;;
84917;SDS011;75182;51.736;5.318;2024-01-11T04:47:22;18.90;;;9.40;;
84917;SDS011;75182;51.736;5.318;2024-01-11T04:57:22;16.90;;;9.23;;
84917;SDS011;75182;51.736;5.318;2024-01-11T05:07:23;19.20;;;9.18;;
84917;SDS011;75182;51.736;5.318;2024-01-11T05:17:23;11.65;;;6.38;;
84917;SDS011;75182;51.736;5.318;2024-01-11T05:27:23;15.82;;;8.57;;
84917;SDS011;75182;51.736;5.318;2024-01-11T05:37:24;19.30;;;9.15;;
84917;SDS011;75182;51.736;5.318;2024-01-11T05:47:24;17.88;;;9.80;;
84917;SDS011;75182;51.736;5.318;2024-01-11T05:57:24;19.67;;;9.93;;
84917;SDS011;75182;51.736;5.318;2024-01-11T06:07:25;17.15;;;9.73;;
84917;SDS011;75182;51.736;5.318;2024-01-11T06:17:25;15.23;;;7.72;;
84917;SDS011;75182;51.736;5.318;2024-01-11T06:27:25;18.45;;;10.27;;
84917;SDS011;75182;51.736;5.318;2024-01-11T06:37:26;17.40;;;8.85;;
84917;SDS011;75182;51.736;5.318;2024-01-11T06:47:26;16.60;;;9.38;;
84917;SDS011;75182;51.736;5.318;2024-01-11T06:57:27;20.88;;;9.73;;
84917;SDS011;75182;51.736;5.318;2024-01-11T07:07:27;19.88;;;9.93;;
84917;SDS011;75182;51.736;5.318;2024-01-11T07:17:27;21.73;;;11.00;;
84917;SDS011;75182;51.736;5.318;2024-01-11T07:27:27;18.92;;;11.30;;
84917;SDS011;75182;51.736;5.318;2024-01-11T07:37:28;22.27;;;11.30;;
84917;SDS011;75182;51.736;5.318;2024-01-11T07:47:28;20.65;;;11.40;;
84917;SDS011;75182;51.736;5.318;2024-01-11T07:57:28;21.13;;;12.15;;
84917;SDS011;75182;51.736;5.318;2024-01-11T08:07:31;21.55;;;11.40;;
84917;SDS011;75182;51.736;5.318;2024-01-11T08:17:31;22.80;;;11.35;;
84917;SDS011;75182;51.736;5.318;2024-01-11T08:27:31;23.90;;;12.95;;
84917;SDS011;75182;51.736;5.318;2024-01-11T08:37:32;21.65;;;13.07;;
84917;SDS011;75182;51.736;5.318;2024-01-11T08:47:33;26.67;;;13.85;;
84917;SDS011;75182;51.736;5.318;2024-01-11T08:57:34;24.25;;;13.93;;
84917;SDS011;75182;51.736;5.318;2024-01-11T09:07:38;30.05;;;18.08;;
84917;SDS011;75182;51.736;5.318;2024-01-11T09:17:38;26.38;;;14.77;;
84917;SDS011;75182;51.736;5.318;2024-01-11T09:27:39;27.30;;;15.45;;
84917;SDS011;75182;51.736;5.318;2024-01-11T09:37:40;23.83;;;14.00;;
84917;SDS011;75182;51.736;5.318;2024-01-11T09:47:40;23.92;;;9.52;;
84917;SDS011;75182;51.736;5.318;2024-01-11T09:57:43;24.67;;;11.67;;
84917;SDS011;75182;51.736;5.318;2024-01-11T10:07:45;27.35;;;13.20;;
84917;SDS011;75182;51.736;5.318;2024-01-11T10:17:45;6.43;;;3.35;;
84917;SDS011;75182;51.736;5.318;2024-01-11T10:27:46;30.67;;;16.42;;
84917;SDS011;75182;51.736;5.318;2024-01-11T10:37:47;32.20;;;16.55;;
84917;SDS011;75182;51.736;5.318;2024-01-11T10:48:00;7.45;;;3.88;;
84917;SDS011;75182;51.736;5.318;2024-01-11T10:58:02;3.35;;;2.05;;
84917;SDS011;75182;51.736;5.318;2024-01-11T11:08:03;23.08;;;11.50;;
84917;SDS011;75182;51.736;5.318;2024-01-11T11:18:07;29.05;;;15.63;;
84917;SDS011;75182;51.736;5.318;2024-01-11T11:28:08;19.05;;;8.88;;
84917;SDS011;75182;51.736;5.318;2024-01-11T11:38:18;24.88;;;13.23;;
84917;SDS011;75182;51.736;5.318;2024-01-11T11:58:30;11.05;;;6.00;;
84917;SDS011;75182;51.736;5.318;2024-01-11T12:08:31;15.88;;;6.53;;
84917;SDS011;75182;51.736;5.318;2024-01-11T12:18:32;8.13;;;3.73;;
84917;SDS011;75182;51.736;5.318;2024-01-11T12:28:32;12.55;;;5.93;;
84917;SDS011;75182;51.736;5.318;2024-01-11T12:38:33;18.00;;;8.17;;
84917;SDS011;75182;51.736;5.318;2024-01-11T12:48:34;20.10;;;9.32;;
84917;SDS011;75182;51.736;5.318;2024-01-11T12:58:35;19.00;;;8.20;;
84917;SDS011;75182;51.736;5.318;2024-01-11T13:08:35;19.05;;;9.15;;
84917;SDS011;75182;51.736;5.318;2024-01-11T13:18:42;21.85;;;10.55;;
84917;SDS011;75182;51.736;5.318;2024-01-11T13:28:42;24.58;;;10.60;;
84917;SDS011;75182;51.736;5.318;2024-01-11T13:38:42;19.02;;;9.18;;
84917;SDS011;75182;51.736;5.318;2024-01-11T13:48:43;21.48;;;9.48;;
84917;SDS011;75182;51.736;5.318;2024-01-11T13:58:43;21.85;;;9.93;;
84917;SDS011;75182;51.736;5.318;2024-01-11T14:08:44;20.08;;;9.85;;
84917;SDS011;75182;51.736;5.318;2024-01-11T14:18:45;20.23;;;9.73;;
84917;SDS011;75182;51.736;5.318;2024-01-11T14:28:45;21.45;;;9.43;;
84917;SDS011;75182;51.736;5.318;2024-01-11T14:38:46;18.77;;;8.48;;
84917;SDS011;75182;51.736;5.318;2024-01-11T14:48:46;21.83;;;10.13;;
84917;SDS011;75182;51.736;5.318;2024-01-11T14:58:46;21.42;;;9.77;;
84917;SDS011;75182;51.736;5.318;2024-01-11T15:08:47;23.73;;;9.45;;
84917;SDS011;75182;51.736;5.318;2024-01-11T15:18:47;18.33;;;8.45;;
84917;SDS011;75182;51.736;5.318;2024-01-11T15:28:47;21.02;;;9.30;;
84917;SDS011;75182;51.736;5.318;2024-01-11T15:38:48;21.13;;;9.70;;
84917;SDS011;75182;51.736;5.318;2024-01-11T15:48:49;21.77;;;10.70;;
84917;SDS011;75182;51.736;5.318;2024-01-11T15:58:49;22.83;;;9.98;;
84917;SDS011;75182;51.736;5.318;2024-01-11T16:08:50;21.88;;;10.50;;
84917;SDS011;75182;51.736;5.318;2024-01-11T16:18:50;25.33;;;11.40;;
84917;SDS011;75182;51.736;5.318;2024-01-11T16:28:51;21.95;;;10.30;;
84917;SDS011;75182;51.736;5.318;2024-01-11T16:38:51;20.88;;;10.25;;
84917;SDS011;75182;51.736;5.318;2024-01-11T16:48:52;16.70;;;7.82;;
84917;SDS011;75182;51.736;5.318;2024-01-11T16:58:52;17.27;;;8.50;;
84917;SDS011;75182;51.736;5.318;2024-01-11T17:08:52;19.92;;;10.52;;
84917;SDS011;75182;51.736;5.318;2024-01-11T17:18:53;24.10;;;11.30;;
84917;SDS011;75182;51.736;5.318;2024-01-11T17:28:54;26.65;;;12.73;;
84917;SDS011;75182;51.736;5.318;2024-01-11T17:38:54;26.27;;;13.65;;
84917;SDS011;75182;51.736;5.318;2024-01-11T17:48:55;16.70;;;7.10;;
84917;SDS011;75182;51.736;5.318;2024-01-11T17:58:59;21.50;;;9.85;;
84917;SDS011;75182;51.736;5.318;2024-01-11T18:09:00;25.40;;;12.20;;
84917;SDS011;75182;51.736;5.318;2024-01-11T18:19:00;24.65;;;11.57;;
84917;SDS011;75182;51.736;5.318;2024-01-11T18:29:01;28.02;;;11.73;;
84917;SDS011;75182;51.736;5.318;2024-01-11T18:39:01;29.90;;;13.35;;
84917;SDS011;75182;51.736;5.318;2024-01-11T18:49:01;26.20;;;12.95;;
84917;SDS011;75182;51.736;5.318;2024-01-11T18:59:02;26.63;;;12.38;;
84917;SDS011;75182;51.736;5.318;2024-01-11T19:09:03;29.67;;;13.75;;
84917;SDS011;75182;51.736;5.318;2024-01-11T19:19:04;27.10;;;13.20;;
84917;SDS011;75182;51.736;5.318;2024-01-11T19:29:04;28.08;;;13.98;;
84917;SDS011;75182;51.736;5.318;2024-01-11T19:39:04;27.30;;;13.50;;
84917;SDS011;75182;51.736;5.318;2024-01-11T19:49:05;29.50;;;13.02;;
84917;SDS011;75182;51.736;5.318;2024-01-11T19:59:05;29.33;;;13.65;;
84917;SDS011;75182;51.736;5.318;2024-01-11T20:09:05;33.67;;;14.38;;
84917;SDS011;75182;51.736;5.318;2024-01-11T20:19:06;26.85;;;13.15;;
84917;SDS011;75182;51.736;5.318;2024-01-11T20:29:06;28.17;;;14.73;;
84917;SDS011;75182;51.736;5.318;2024-01-11T20:39:06;30.98;;;15.90;;
84917;SDS011;75182;51.736;5.318;2024-01-11T20:49:08;31.13;;;14.77;;
84917;SDS011;75182;51.736;5.318;2024-01-11T20:59:09;28.33;;;14.40;;
84917;SDS011;75182;51.736;5.318;2024-01-11T21:09:09;31.27;;;14.20;;
84917;SDS011;75182;51.736;5.318;2024-01-11T21:19:10;30.80;;;15.57;;
84917;SDS011;75182;51.736;5.318;2024-01-11T21:29:11;32.08;;;14.90;;
84917;SDS011;75182;51.736;5.318;2024-01-11T21:39:11;33.42;;;14.55;;
84917;SDS011;75182;51.736;5.318;2024-01-11T21:49:11;33.03;;;16.02;;
84917;SDS011;75182;51.736;5.318;2024-01-11T21:59:17;34.58;;;16.98;;
84917;SDS011;75182;51.736;5.318;2024-01-11T22:09:17;36.53;;;15.70;;
84917;SDS011;75182;51.736;5.318;2024-01-11T22:19:18;35.17;;;17.10;;
84917;SDS011;75182;51.736;5.318;2024-01-11T22:29:18;42.95;;;21.02;;
84917;SDS011;75182;51.736;5.318;2024-01-11T22:39:18;44.92;;;23.23;;
84917;SDS011;75182;51.736;5.318;2024-01-11T22:49:19;37.60;;;20.05;;
84917;SDS011;75182;51.736;5.318;2024-01-11T22:59:19;43.83;;;23.45;;
84917;SDS011;75182;51.736;5.318;2024-01-11T23:09:19;40.33;;;21.73;;
84917;SDS011;75182;51.736;5.318;2024-01-11T23:19:20;34.95;;;17.15;;
84917;SDS011;75182;51.736;5.318;2024-01-11T23:29:20;33.53;;;19.15;;
84917;SDS011;75182;51.736;5.318;2024-01-11T23:39:20;32.58;;;16.77;;
84917;SDS011;75182;51.736;5.318;2024-01-11T23:49:22;31.23;;;15.77;;
84917;SDS011;75182;51.736;5.318;2024-01-11T23:59:22;27.17;;;12.75;;
